sensor_id;sensor_type;location;lat;lon;timestamp;pressure;altitude;pressure_sealevel;temperature;humidity
64544;BME280;50936;51.660;5.616;2022-10-16T00:01:30;100655.22;;;12.47;100.00
64544;BME280;50936;51.660;5.616;2022-10-16T00:04:17;100660.63;;;12.47;100.00
64544;BME280;50936;51.660;5.616;2022-10-16T00:07:04;100665.81;;;12.50;100.00
64544;BME280;50936;51.660;5.616;2022-10-16T00:09:51;100656.94;;;12.48;100.00
64544;BME280;50936;51.660;5.616;2022-10-16T00:12:38;100654.25;;;12.48;100.00
64544;BME280;50936;51.660;5.616;2022-10-16T00:15:25;100662.38;;;12.48;100.00
64544;BME280;50936;51.660;5.616;2022-10-16T00:18:12;100654.47;;;12.45;100.00
64544;BME280;50936;51.660;5.616;2022-10-16T00:21:05;100660.63;;;12.47;100.00
64544;BME280;50936;51.660;5.616;2022-10-16T00:24:04;100660.91;;;12.44;100.00
64544;BME280;50936;51.660;5.616;2022-10-16T00:26:53;100671.97;;;12.41;100.00
64544;BME280;50936;51.660;5.616;2022-10-16T00:29:40;100655.72;;;12.41;100.00
64544;BME280;50936;51.660;5.616;2022-10-16T00:32:26;100658.03;;;12.34;100.00
64544;BME280;50936;51.660;5.616;2022-10-16T00:35:14;100669.75;;;12.35;100.00
64544;BME280;50936;51.660;5.616;2022-10-16T00:38:00;100667.06;;;12.35;100.00
64544;BME280;50936;51.660;5.616;2022-10-16T00:40:47;100665.31;;;12.33;100.00
64544;BME280;50936;51.660;5.616;2022-10-16T00:46:42;100671.69;;;12.32;100.00
64544;BME280;50936;51.660;5.616;2022-10-16T00:49:29;100664.56;;;12.31;100.00
64544;BME280;50936;51.660;5.616;2022-10-16T00:52:16;100666.56;;;12.29;100.00
64544;BME280;50936;51.660;5.616;2022-10-16T00:55:04;100667.53;;;12.28;100.00
64544;BME280;50936;51.660;5.616;2022-10-16T00:57:53;100678.34;;;12.28;100.00
64544;BME280;50936;51.660;5.616;2022-10-16T01:00:40;100669.25;;;12.29;100.00
64544;BME280;50936;51.660;5.616;2022-10-16T01:03:32;100678.34;;;12.28;100.00
64544;BME280;50936;51.660;5.616;2022-10-16T01:06:24;100669.50;;;12.26;100.00
64544;BME280;50936;51.660;5.616;2022-10-16T01:10:01;100664.06;;;12.26;100.00
64544;BME280;50936;51.660;5.616;2022-10-16T01:13:09;100656.97;;;12.25;100.00
64544;BME280;50936;51.660;5.616;2022-10-16T01:16:14;100655.44;;;12.21;100.00
64544;BME280;50936;51.660;5.616;2022-10-16T01:22:56;100666.66;;;12.17;100.00
64544;BME280;50936;51.660;5.616;2022-10-16T01:28:50;100667.63;;;12.16;100.00
64544;BME280;50936;51.660;5.616;2022-10-16T01:31:44;100669.25;;;12.18;100.00
64544;BME280;50936;51.660;5.616;2022-10-16T01:34:42;100664.56;;;12.20;100.00
64544;BME280;50936;51.660;5.616;2022-10-16T01:37:39;100661.59;;;12.23;100.00
64544;BME280;50936;51.660;5.616;2022-10-16T01:40:34;100667.03;;;12.23;100.00
64544;BME280;50936;51.660;5.616;2022-10-16T01:43:28;100667.78;;;12.25;100.00
64544;BME280;50936;51.660;5.616;2022-10-16T01:46:22;100666.91;;;12.25;100.00
64544;BME280;50936;51.660;5.616;2022-10-16T01:49:11;100666.03;;;12.24;100.00
64544;BME280;50936;51.660;5.616;2022-10-16T01:52:02;100674.91;;;12.26;100.00
64544;BME280;50936;51.660;5.616;2022-10-16T01:54:55;100665.81;;;12.27;100.00
64544;BME280;50936;51.660;5.616;2022-10-16T01:57:47;100664.06;;;12.26;100.00
64544;BME280;50936;51.660;5.616;2022-10-16T02:00:40;100669.72;;;12.23;100.00
64544;BME280;50936;51.660;5.616;2022-10-16T02:03:32;100671.47;;;12.24;100.00
64544;BME280;50936;51.660;5.616;2022-10-16T02:06:20;100671.47;;;12.24;100.00
64544;BME280;50936;51.660;5.616;2022-10-16T02:09:09;100676.88;;;12.24;100.00
64544;BME280;50936;51.660;5.616;2022-10-16T02:11:58;100667.78;;;12.25;100.00
64544;BME280;50936;51.660;5.616;2022-10-16T02:14:49;100670.34;;;12.27;100.00
64544;BME280;50936;51.660;5.616;2022-10-16T02:17:36;100684.03;;;12.25;100.00
64544;BME280;50936;51.660;5.616;2022-10-16T02:20:27;100687.47;;;12.27;100.00
64544;BME280;50936;51.660;5.616;2022-10-16T02:23:00;100682.06;;;12.27;100.00
64544;BME280;50936;51.660;5.616;2022-10-16T02:25:34;100683.78;;;12.28;100.00
64544;BME280;50936;51.660;5.616;2022-10-16T02:30:54;100674.91;;;12.26;100.00
64544;BME280;50936;51.660;5.616;2022-10-16T02:33:28;100670.84;;;12.21;100.00
64544;BME280;50936;51.660;5.616;2022-10-16T02:35:58;100664.56;;;12.20;100.00
64544;BME280;50936;51.660;5.616;2022-10-16T02:38:25;100674.53;;;12.20;100.00
64544;BME280;50936;51.660;5.616;2022-10-16T02:40:54;100671.97;;;12.18;100.00
64544;BME280;50936;51.660;5.616;2022-10-16T02:43:21;100675.75;;;12.16;100.00
64544;BME280;50936;51.660;5.616;2022-10-16T02:45:48;100683.03;;;12.15;100.00
64544;BME280;50936;51.660;5.616;2022-10-16T02:48:15;100681.28;;;12.14;100.00
64544;BME280;50936;51.660;5.616;2022-10-16T02:50:41;100683.25;;;12.12;100.00
64544;BME280;50936;51.660;5.616;2022-10-16T02:53:08;100679.91;;;12.08;100.00
64544;BME280;50936;51.660;5.616;2022-10-16T02:55:35;100671.81;;;12.08;100.00
64544;BME280;50936;51.660;5.616;2022-10-16T02:58:02;100669.22;;;12.07;100.00
64544;BME280;50936;51.660;5.616;2022-10-16T03:00:29;100661.47;;;12.02;100.00
64544;BME280;50936;51.660;5.616;2022-10-16T03:02:55;100660.09;;;11.97;100.00
64544;BME280;50936;51.660;5.616;2022-10-16T03:05:22;100669.06;;;11.97;100.00
64544;BME280;50936;51.660;5.616;2022-10-16T03:07:49;100670.19;;;11.94;100.00
64544;BME280;50936;51.660;5.616;2022-10-16T03:10:16;100672.78;;;11.96;100.00
64544;BME280;50936;51.660;5.616;2022-10-16T03:12:43;100677.19;;;11.97;100.00
64544;BME280;50936;51.660;5.616;2022-10-16T03:15:09;100682.72;;;11.96;100.00
64544;BME280;50936;51.660;5.616;2022-10-16T03:17:36;100681.88;;;11.95;100.00
64544;BME280;50936;51.660;5.616;2022-10-16T03:20:03;100679.28;;;11.93;100.00
64544;BME280;50936;51.660;5.616;2022-10-16T03:22:30;100685.69;;;11.92;100.00
64544;BME280;50936;51.660;5.616;2022-10-16T03:24:57;100691.22;;;11.91;100.00
64544;BME280;50936;51.660;5.616;2022-10-16T03:27:24;100708.50;;;11.88;100.00
64544;BME280;50936;51.660;5.616;2022-10-16T03:29:51;100704.09;;;11.87;100.00
64544;BME280;50936;51.660;5.616;2022-10-16T03:32:18;100705.91;;;11.87;100.00
64544;BME280;50936;51.660;5.616;2022-10-16T03:34:46;100705.06;;;11.86;100.00
64544;BME280;50936;51.660;5.616;2022-10-16T03:37:13;100707.66;;;11.88;100.00
64544;BME280;50936;51.660;5.616;2022-10-16T03:39:40;100708.50;;;11.88;100.00
64544;BME280;50936;51.660;5.616;2022-10-16T03:42:07;100709.63;;;11.86;100.00
64544;BME280;50936;51.660;5.616;2022-10-16T03:44:33;100708.75;;;11.85;100.00
64544;BME280;50936;51.660;5.616;2022-10-16T03:47:00;100699.91;;;11.83;100.00
64544;BME280;50936;51.660;5.616;2022-10-16T03:49:27;100704.44;;;11.83;100.00
64544;BME280;50936;51.660;5.616;2022-10-16T03:51:54;100707.25;;;11.81;100.00
64544;BME280;50936;51.660;5.616;2022-10-16T03:54:21;100702.09;;;11.78;100.00
64544;BME280;50936;51.660;5.616;2022-10-16T03:56:48;100704.06;;;11.76;100.00
64544;BME280;50936;51.660;5.616;2022-10-16T03:59:15;100712.91;;;11.78;100.00
64544;BME280;50936;51.660;5.616;2022-10-16T04:01:42;100714.88;;;11.76;100.00
64544;BME280;50936;51.660;5.616;2022-10-16T04:04:09;100716.59;;;11.77;100.00
64544;BME280;50936;51.660;5.616;2022-10-16T04:06:35;100714.75;;;11.78;100.00
64544;BME280;50936;51.660;5.616;2022-10-16T04:09:02;100721.16;;;11.77;100.00
64544;BME280;50936;51.660;5.616;2022-10-16T04:11:29;100722.00;;;11.77;100.00
64544;BME280;50936;51.660;5.616;2022-10-16T04:13:56;100721.16;;;11.77;100.00
64544;BME280;50936;51.660;5.616;2022-10-16T04:16:23;100730.00;;;11.79;100.00
64544;BME280;50936;51.660;5.616;2022-10-16T04:18:49;100732.81;;;11.77;100.00
64544;BME280;50936;51.660;5.616;2022-10-16T04:21:16;100726.56;;;11.77;100.00
64544;BME280;50936;51.660;5.616;2022-10-16T04:23:43;100726.66;;;11.75;100.00
64544;BME280;50936;51.660;5.616;2022-10-16T04:26:11;100732.81;;;11.77;100.00
64544;BME280;50936;51.660;5.616;2022-10-16T04:28:38;100735.41;;;11.79;100.00
64544;BME280;50936;51.660;5.616;2022-10-16T04:31:06;100743.44;;;11.80;100.00
64544;BME280;50936;51.660;5.616;2022-10-16T04:33:33;100745.13;;;11.81;100.00
64544;BME280;50936;51.660;5.616;2022-10-16T04:36:01;100743.19;;;11.83;100.00
64544;BME280;50936;51.660;5.616;2022-10-16T04:38:29;100744.91;;;11.84;100.00
64544;BME280;50936;51.660;5.616;2022-10-16T04:40:57;100725.22;;;11.82;100.00
64544;BME280;50936;51.660;5.616;2022-10-16T04:43:23;100742.94;;;11.86;100.00
64544;BME280;50936;51.660;5.616;2022-10-16T04:45:50;100742.94;;;11.86;100.00
64544;BME280;50936;51.660;5.616;2022-10-16T04:48:18;100750.09;;;11.87;100.00
64544;BME280;50936;51.660;5.616;2022-10-16T04:50:45;100746.50;;;11.87;100.00
64544;BME280;50936;51.660;5.616;2022-10-16T04:53:17;100756.38;;;11.88;100.00
64544;BME280;50936;51.660;5.616;2022-10-16T04:55:44;100755.28;;;11.90;100.00
64544;BME280;50936;51.660;5.616;2022-10-16T04:58:10;100756.16;;;11.91;100.00
64544;BME280;50936;51.660;5.616;2022-10-16T05:00:37;100754.09;;;11.94;100.00
64544;BME280;50936;51.660;5.616;2022-10-16T05:03:05;100758.50;;;11.96;100.00
64544;BME280;50936;51.660;5.616;2022-10-16T05:05:35;100762.97;;;11.97;100.00
64544;BME280;50936;51.660;5.616;2022-10-16T05:08:03;100759.25;;;11.98;100.00
64544;BME280;50936;51.660;5.616;2022-10-16T05:10:30;100766.63;;;11.96;100.00
64544;BME280;50936;51.660;5.616;2022-10-16T05:12:57;100771.41;;;11.92;100.00
64544;BME280;50936;51.660;5.616;2022-10-16T05:15:24;100775.19;;;11.89;100.00
64544;BME280;50936;51.660;5.616;2022-10-16T05:17:54;100781.69;;;11.87;100.00
64544;BME280;50936;51.660;5.616;2022-10-16T05:20:22;100783.78;;;11.83;100.00
64544;BME280;50936;51.660;5.616;2022-10-16T05:22:49;100791.13;;;11.81;100.00
64544;BME280;50936;51.660;5.616;2022-10-16T05:25:16;100791.91;;;11.83;100.00
64544;BME280;50936;51.660;5.616;2022-10-16T05:27:47;100789.31;;;11.82;100.00
64544;BME280;50936;51.660;5.616;2022-10-16T05:30:16;100793.84;;;11.81;100.00
64544;BME280;50936;51.660;5.616;2022-10-16T05:32:50;100811.81;;;11.82;100.00
64544;BME280;50936;51.660;5.616;2022-10-16T05:35:18;100804.66;;;11.81;100.00
64544;BME280;50936;51.660;5.616;2022-10-16T05:37:46;100804.66;;;11.81;100.00
64544;BME280;50936;51.660;5.616;2022-10-16T05:40:14;100812.03;;;11.79;100.00
64544;BME280;50936;51.660;5.616;2022-10-16T05:42:42;100824.59;;;11.80;100.00
64544;BME280;50936;51.660;5.616;2022-10-16T05:45:10;100822.00;;;11.79;100.00
64544;BME280;50936;51.660;5.616;2022-10-16T05:47:38;100832.84;;;11.79;100.00
64544;BME280;50936;51.660;5.616;2022-10-16T05:50:06;100833.69;;;11.79;100.00
64544;BME280;50936;51.660;5.616;2022-10-16T05:52:33;100839.09;;;11.79;100.00
64544;BME280;50936;51.660;5.616;2022-10-16T05:55:00;100850.91;;;11.78;100.00
64544;BME280;50936;51.660;5.616;2022-10-16T05:57:26;100853.63;;;11.78;100.00
64544;BME280;50936;51.660;5.616;2022-10-16T05:59:54;100862.59;;;11.79;100.00
64544;BME280;50936;51.660;5.616;2022-10-16T06:02:21;100864.44;;;11.78;100.00
64544;BME280;50936;51.660;5.616;2022-10-16T06:04:47;100873.53;;;11.77;100.00
64544;BME280;50936;51.660;5.616;2022-10-16T06:07:14;100878.09;;;11.77;100.00
64544;BME280;50936;51.660;5.616;2022-10-16T06:09:41;100875.28;;;11.78;100.00
64544;BME280;50936;51.660;5.616;2022-10-16T06:12:08;100882.38;;;11.79;100.00
64544;BME280;50936;51.660;5.616;2022-10-16T06:14:34;100871.56;;;11.79;100.00
64544;BME280;50936;51.660;5.616;2022-10-16T06:17:01;100894.31;;;11.77;100.00
64544;BME280;50936;51.660;5.616;2022-10-16T06:19:28;100895.19;;;11.77;100.00
64544;BME280;50936;51.660;5.616;2022-10-16T06:21:55;100895.19;;;11.77;100.00
64544;BME280;50936;51.660;5.616;2022-10-16T06:24:24;100889.97;;;11.74;100.00
64544;BME280;50936;51.660;5.616;2022-10-16T06:26:51;100890.75;;;11.76;100.00
64544;BME280;50936;51.660;5.616;2022-10-16T06:29:18;100908.81;;;11.75;100.00
64544;BME280;50936;51.660;5.616;2022-10-16T06:31:45;100892.47;;;11.77;100.00
64544;BME280;50936;51.660;5.616;2022-10-16T06:34:12;100904.94;;;11.80;100.00
64544;BME280;50936;51.660;5.616;2022-10-16T06:36:39;100915.75;;;11.80;100.00
64544;BME280;50936;51.660;5.616;2022-10-16T06:39:07;100913.78;;;11.82;100.00
64544;BME280;50936;51.660;5.616;2022-10-16T06:41:34;100918.31;;;11.81;100.00
64544;BME280;50936;51.660;5.616;2022-10-16T06:44:14;100920.81;;;11.84;100.00
64544;BME280;50936;51.660;5.616;2022-10-16T06:46:41;100929.78;;;11.85;100.00
64544;BME280;50936;51.660;5.616;2022-10-16T06:49:08;100939.22;;;11.92;100.00
64544;BME280;50936;51.660;5.616;2022-10-16T06:51:34;100932.25;;;12.01;100.00
64544;BME280;50936;51.660;5.616;2022-10-16T06:54:08;100939.47;;;12.13;100.00
64544;BME280;50936;51.660;5.616;2022-10-16T06:56:35;100938.03;;;12.20;100.00
64544;BME280;50936;51.660;5.616;2022-10-16T06:59:02;100939.06;;;12.30;100.00
64544;BME280;50936;51.660;5.616;2022-10-16T07:01:30;100937.88;;;12.35;100.00
64544;BME280;50936;51.660;5.616;2022-10-16T07:03:57;100948.47;;;12.38;100.00
64544;BME280;50936;51.660;5.616;2022-10-16T07:06:25;100957.09;;;12.43;100.00
64544;BME280;50936;51.660;5.616;2022-10-16T07:08:53;100953.19;;;12.47;100.00
64544;BME280;50936;51.660;5.616;2022-10-16T07:11:22;100957.16;;;12.54;100.00
64544;BME280;50936;51.660;5.616;2022-10-16T07:13:50;100966.44;;;12.63;100.00
64544;BME280;50936;51.660;5.616;2022-10-16T07:16:27;100975.59;;;12.73;100.00
64544;BME280;50936;51.660;5.616;2022-10-16T07:19:00;100964.06;;;12.82;100.00
64544;BME280;50936;51.660;5.616;2022-10-16T07:21:31;100970.59;;;12.91;100.00
64544;BME280;50936;51.660;5.616;2022-10-16T07:24:04;100979.97;;;12.98;100.00
64544;BME280;50936;51.660;5.616;2022-10-16T07:26:34;100982.72;;;13.09;100.00
64544;BME280;50936;51.660;5.616;2022-10-16T07:29:03;100993.84;;;13.18;100.00
64544;BME280;50936;51.660;5.616;2022-10-16T07:31:30;101003.47;;;13.22;100.00
64544;BME280;50936;51.660;5.616;2022-10-16T07:33:59;101009.50;;;13.25;100.00
64544;BME280;50936;51.660;5.616;2022-10-16T07:36:26;101006.44;;;13.30;100.00
64544;BME280;50936;51.660;5.616;2022-10-16T07:38:54;101012.38;;;13.35;100.00
64544;BME280;50936;51.660;5.616;2022-10-16T07:41:25;101017.59;;;13.38;100.00
64544;BME280;50936;51.660;5.616;2022-10-16T07:43:54;101024.75;;;13.39;100.00
64544;BME280;50936;51.660;5.616;2022-10-16T07:46:23;101021.78;;;13.42;100.00
64544;BME280;50936;51.660;5.616;2022-10-16T07:48:50;101023.50;;;13.43;100.00
64544;BME280;50936;51.660;5.616;2022-10-16T07:51:18;101026.97;;;13.45;100.00
64544;BME280;50936;51.660;5.616;2022-10-16T07:53:47;101025.50;;;13.53;100.00
64544;BME280;50936;51.660;5.616;2022-10-16T07:56:16;101027.97;;;13.56;100.00
64544;BME280;50936;51.660;5.616;2022-10-16T07:58:44;101034.88;;;13.60;100.00
64544;BME280;50936;51.660;5.616;2022-10-16T08:01:13;101040.09;;;13.63;100.00
64544;BME280;50936;51.660;5.616;2022-10-16T08:03:46;101041.56;;;13.67;100.00
64544;BME280;50936;51.660;5.616;2022-10-16T08:06:16;101050.09;;;13.74;100.00
64544;BME280;50936;51.660;5.616;2022-10-16T08:08:49;101057.13;;;13.76;100.00
64544;BME280;50936;51.660;5.616;2022-10-16T08:11:16;101050.44;;;13.80;100.00
64544;BME280;50936;51.660;5.616;2022-10-16T08:13:43;101053.91;;;13.82;100.00
64544;BME280;50936;51.660;5.616;2022-10-16T08:16:10;101063.78;;;13.83;100.00
64544;BME280;50936;51.660;5.616;2022-10-16T08:18:38;101066.00;;;13.90;100.00
64544;BME280;50936;51.660;5.616;2022-10-16T08:21:14;101065.53;;;13.96;100.00
64544;BME280;50936;51.660;5.616;2022-10-16T08:23:47;101071.44;;;14.01;100.00
64544;BME280;50936;51.660;5.616;2022-10-16T08:26:24;101074.88;;;14.03;100.00
64544;BME280;50936;51.660;5.616;2022-10-16T08:28:51;101081.53;;;14.10;100.00
64544;BME280;50936;51.660;5.616;2022-10-16T08:31:18;101080.19;;;14.16;100.00
64544;BME280;50936;51.660;5.616;2022-10-16T08:33:46;101088.84;;;14.21;100.00
64544;BME280;50936;51.660;5.616;2022-10-16T08:36:15;101094.63;;;14.28;100.00
64544;BME280;50936;51.660;5.616;2022-10-16T08:38:42;101095.88;;;14.35;100.00
64544;BME280;50936;51.660;5.616;2022-10-16T08:49:41;101114.38;;;14.52;100.00
64544;BME280;50936;51.660;5.616;2022-10-16T08:52:14;101118.34;;;14.59;100.00
64544;BME280;50936;51.660;5.616;2022-10-16T08:54:47;101122.03;;;14.70;100.00
64544;BME280;50936;51.660;5.616;2022-10-16T08:57:24;101122.75;;;14.83;100.00
64544;BME280;50936;51.660;5.616;2022-10-16T08:59:53;101120.75;;;14.85;100.00
64544;BME280;50936;51.660;5.616;2022-10-16T09:08:08;101133.22;;;14.99;100.00
64544;BME280;50936;51.660;5.616;2022-10-16T09:16:43;101147.63;;;15.11;100.00
64544;BME280;50936;51.660;5.616;2022-10-16T09:19:22;101156.53;;;15.13;100.00
64544;BME280;50936;51.660;5.616;2022-10-16T09:21:55;101152.59;;;15.17;100.00
64544;BME280;50936;51.660;5.616;2022-10-16T09:24:25;101159.50;;;15.21;100.00
64544;BME280;50936;51.660;5.616;2022-10-16T09:26:55;101155.50;;;15.25;100.00
64544;BME280;50936;51.660;5.616;2022-10-16T09:29:24;101156.25;;;15.27;100.00
64544;BME280;50936;51.660;5.616;2022-10-16T09:31:52;101147.81;;;15.30;100.00
64544;BME280;50936;51.660;5.616;2022-10-16T09:34:30;101153.63;;;15.37;100.00
64544;BME280;50936;51.660;5.616;2022-10-16T09:37:03;101156.94;;;15.40;100.00
64544;BME280;50936;51.660;5.616;2022-10-16T09:39:50;101161.13;;;15.45;100.00
64544;BME280;50936;51.660;5.616;2022-10-16T09:42:31;101165.06;;;15.52;100.00
64544;BME280;50936;51.660;5.616;2022-10-16T09:45:03;101163.00;;;15.65;100.00
64544;BME280;50936;51.660;5.616;2022-10-16T09:47:31;101169.66;;;15.72;100.00
64544;BME280;50936;51.660;5.616;2022-10-16T09:50:20;101170.88;;;15.80;100.00
64544;BME280;50936;51.660;5.616;2022-10-16T09:52:51;101162.91;;;15.88;100.00
64544;BME280;50936;51.660;5.616;2022-10-16T09:55:28;101170.69;;;15.92;100.00
64544;BME280;50936;51.660;5.616;2022-10-16T09:57:55;101168.44;;;15.97;100.00
64544;BME280;50936;51.660;5.616;2022-10-16T10:00:23;101165.03;;;16.05;100.00
64544;BME280;50936;51.660;5.616;2022-10-16T10:02:51;101178.22;;;16.10;100.00
64544;BME280;50936;51.660;5.616;2022-10-16T10:05:27;101177.59;;;16.17;100.00
64544;BME280;50936;51.660;5.616;2022-10-16T10:08:00;101173.13;;;16.16;100.00
64544;BME280;50936;51.660;5.616;2022-10-16T10:10:42;101171.72;;;16.22;100.00
64544;BME280;50936;51.660;5.616;2022-10-16T10:13:20;101180.94;;;16.31;99.37
64544;BME280;50936;51.660;5.616;2022-10-16T10:15:49;101178.38;;;16.39;99.69
64544;BME280;50936;51.660;5.616;2022-10-16T10:18:21;101187.94;;;16.54;96.33
64544;BME280;50936;51.660;5.616;2022-10-16T10:21:00;101182.75;;;16.51;95.91
64544;BME280;50936;51.660;5.616;2022-10-16T10:23:33;101184.50;;;16.52;97.24
64544;BME280;50936;51.660;5.616;2022-10-16T10:26:09;101185.09;;;16.56;97.00
64544;BME280;50936;51.660;5.616;2022-10-16T10:31:42;101196.94;;;16.76;94.26
64544;BME280;50936;51.660;5.616;2022-10-16T10:34:43;101203.59;;;16.83;93.36
64544;BME280;50936;51.660;5.616;2022-10-16T10:46:35;101201.28;;;16.88;92.45
64544;BME280;50936;51.660;5.616;2022-10-16T11:01:02;101209.47;;;16.88;86.97
64544;BME280;50936;51.660;5.616;2022-10-16T11:09:12;101218.44;;;17.10;85.58
64544;BME280;50936;51.660;5.616;2022-10-16T11:11:45;101223.22;;;17.27;84.66
64544;BME280;50936;51.660;5.616;2022-10-16T11:17:26;101228.44;;;17.69;80.08
64544;BME280;50936;51.660;5.616;2022-10-16T11:20:04;101227.59;;;17.79;79.99
64544;BME280;50936;51.660;5.616;2022-10-16T11:22:43;101225.00;;;17.87;82.26
64544;BME280;50936;51.660;5.616;2022-10-16T11:25:20;101223.00;;;17.99;83.55
64544;BME280;50936;51.660;5.616;2022-10-16T11:31:38;101223.50;;;18.22;78.68
64544;BME280;50936;51.660;5.616;2022-10-16T11:36:49;101219.53;;;18.06;80.42
64544;BME280;50936;51.660;5.616;2022-10-16T11:39:31;101227.16;;;17.93;80.42
64544;BME280;50936;51.660;5.616;2022-10-16T11:42:11;101227.59;;;17.79;78.15
64544;BME280;50936;51.660;5.616;2022-10-16T11:45:00;101233.59;;;17.63;79.22
64544;BME280;50936;51.660;5.616;2022-10-16T11:47:45;101230.72;;;17.55;79.92
64544;BME280;50936;51.660;5.616;2022-10-16T11:51:11;101239.06;;;17.63;82.10
64544;BME280;50936;51.660;5.616;2022-10-16T11:56:21;101241.81;;;18.02;78.35
64544;BME280;50936;51.660;5.616;2022-10-16T11:58:59;101238.78;;;18.15;76.68
64544;BME280;50936;51.660;5.616;2022-10-16T12:01:41;101241.34;;;18.26;76.10
64544;BME280;50936;51.660;5.616;2022-10-16T12:04:36;101244.94;;;18.36;75.42
64544;BME280;50936;51.660;5.616;2022-10-16T12:07:15;101241.06;;;18.29;75.22
64544;BME280;50936;51.660;5.616;2022-10-16T12:09:48;101236.47;;;18.20;73.78
64544;BME280;50936;51.660;5.616;2022-10-16T12:12:28;101232.31;;;18.16;75.78
64544;BME280;50936;51.660;5.616;2022-10-16T12:17:55;101230.72;;;17.84;77.59
64544;BME280;50936;51.660;5.616;2022-10-16T12:20:25;101236.19;;;17.84;78.12
64544;BME280;50936;51.660;5.616;2022-10-16T12:23:01;101252.19;;;17.88;78.24
64544;BME280;50936;51.660;5.616;2022-10-16T12:25:34;101251.47;;;17.86;78.51
64544;BME280;50936;51.660;5.616;2022-10-16T12:28:21;101256.31;;;17.83;78.36
64544;BME280;50936;51.660;5.616;2022-10-16T12:30:55;101261.34;;;17.78;77.99
64544;BME280;50936;51.660;5.616;2022-10-16T12:33:35;101257.91;;;17.76;78.45
64544;BME280;50936;51.660;5.616;2022-10-16T12:36:15;101252.72;;;17.73;78.50
64544;BME280;50936;51.660;5.616;2022-10-16T12:38:53;101250.44;;;17.68;79.03
64544;BME280;50936;51.660;5.616;2022-10-16T12:41:34;101254.03;;;17.68;77.95
64544;BME280;50936;51.660;5.616;2022-10-16T12:44:04;101257.19;;;17.74;78.03
64544;BME280;50936;51.660;5.616;2022-10-16T12:51:43;101240.81;;;17.74;77.29
64544;BME280;50936;51.660;5.616;2022-10-16T12:54:16;101244.84;;;17.69;77.80
64544;BME280;50936;51.660;5.616;2022-10-16T13:09:05;101248.31;;;18.01;78.73
64544;BME280;50936;51.660;5.616;2022-10-16T13:20:12;101248.59;;;19.02;73.58
64544;BME280;50936;51.660;5.616;2022-10-16T13:26:05;101255.75;;;19.94;69.45
64544;BME280;50936;51.660;5.616;2022-10-16T13:28:42;101257.94;;;20.09;67.81
64544;BME280;50936;51.660;5.616;2022-10-16T13:31:17;101256.38;;;20.24;67.28
64544;BME280;50936;51.660;5.616;2022-10-16T13:33:49;101247.41;;;20.22;65.03
64544;BME280;50936;51.660;5.616;2022-10-16T13:36:24;101260.00;;;20.07;64.62
64544;BME280;50936;51.660;5.616;2022-10-16T13:41:44;101260.72;;;19.45;67.58
64544;BME280;50936;51.660;5.616;2022-10-16T13:44:19;101266.63;;;19.22;68.46
64544;BME280;50936;51.660;5.616;2022-10-16T13:46:58;101268.47;;;19.04;68.53
64544;BME280;50936;51.660;5.616;2022-10-16T13:49:26;101266.22;;;18.90;69.84
64544;BME280;50936;51.660;5.616;2022-10-16T13:51:55;101266.25;;;18.80;70.29
64544;BME280;50936;51.660;5.616;2022-10-16T13:54:27;101268.88;;;18.81;70.32
64544;BME280;50936;51.660;5.616;2022-10-16T13:57:04;101267.97;;;18.81;70.34
64544;BME280;50936;51.660;5.616;2022-10-16T13:59:52;101273.19;;;18.74;70.73
64544;BME280;50936;51.660;5.616;2022-10-16T14:02:36;101270.31;;;18.66;71.07
64544;BME280;50936;51.660;5.616;2022-10-16T14:05:09;101277.00;;;18.54;72.83
64544;BME280;50936;51.660;5.616;2022-10-16T14:07:37;101275.53;;;18.50;73.39
64544;BME280;50936;51.660;5.616;2022-10-16T14:10:22;101271.81;;;18.51;73.53
64544;BME280;50936;51.660;5.616;2022-10-16T14:13:02;101280.44;;;18.56;73.96
64544;BME280;50936;51.660;5.616;2022-10-16T14:15:34;101275.78;;;18.66;75.61
64544;BME280;50936;51.660;5.616;2022-10-16T14:18:03;101273.59;;;18.79;74.12
64544;BME280;50936;51.660;5.616;2022-10-16T14:20:32;101277.50;;;18.87;73.90
64544;BME280;50936;51.660;5.616;2022-10-16T14:23:03;101277.03;;;18.91;72.99
64544;BME280;50936;51.660;5.616;2022-10-16T14:25:45;101271.00;;;18.88;73.54
64544;BME280;50936;51.660;5.616;2022-10-16T14:30:58;101258.78;;;18.72;72.25
64544;BME280;50936;51.660;5.616;2022-10-16T14:38:35;101266.63;;;18.47;74.44
64544;BME280;50936;51.660;5.616;2022-10-16T14:41:04;101273.50;;;18.52;74.11
64544;BME280;50936;51.660;5.616;2022-10-16T14:43:39;101268.03;;;18.52;75.32
64544;BME280;50936;51.660;5.616;2022-10-16T14:46:12;101268.94;;;18.52;74.83
64544;BME280;50936;51.660;5.616;2022-10-16T14:48:43;101250.78;;;18.51;76.01
64544;BME280;50936;51.660;5.616;2022-10-16T14:51:14;101249.50;;;18.45;76.63
64544;BME280;50936;51.660;5.616;2022-10-16T14:53:41;101255.13;;;18.44;76.39
64544;BME280;50936;51.660;5.616;2022-10-16T14:56:16;101261.63;;;18.43;77.22
64544;BME280;50936;51.660;5.616;2022-10-16T14:58:52;101251.81;;;18.40;78.07
64544;BME280;50936;51.660;5.616;2022-10-16T15:01:20;101251.66;;;18.42;78.02
64544;BME280;50936;51.660;5.616;2022-10-16T15:03:47;101247.63;;;18.46;77.79
64544;BME280;50936;51.660;5.616;2022-10-16T15:06:15;101261.16;;;18.47;77.50
64544;BME280;50936;51.660;5.616;2022-10-16T15:08:43;101258.75;;;18.44;78.43
64544;BME280;50936;51.660;5.616;2022-10-16T15:11:18;101252.53;;;18.42;78.65
64544;BME280;50936;51.660;5.616;2022-10-16T15:13:46;101249.09;;;18.40;78.38
64544;BME280;50936;51.660;5.616;2022-10-16T15:16:15;101257.59;;;18.37;78.79